Time;durP1;ratioP1;P1;durP2;ratioP2;P2;SDS_P1;SDS_P2;PMS_P1;PMS_P2;Temp;Humidity;BMP_temperature;BMP_pressure;BME280_temperature;BME280_humidity;BME280_pressure;Samples;Min_cycle;Max_cycle;Signal;HPM_P1;HPM_P2
2022/12/02 00:04:00;;;;;;;102.70;30.00;;;;;;;2.30;76.28;101746.20;660177;1312;138443;-74
2022/12/02 00:19:04;;;;;;;39.60;17.50;;;;;;;2.31;76.64;101737.88;660452;1312;138609;-75
2022/12/02 00:34:08;;;;;;;38.10;16.90;;;;;;;2.20;75.62;101727.84;660232;1313;138821;-74
2022/12/02 00:49:15;;;;;;;40.40;18.10;;;;;;;2.02;76.10;101731.81;660917;1313;138521;-74
2022/12/02 01:04:18;;;;;;;46.20;19.00;;;;;;;1.83;76.00;101735.31;660003;1309;138899;-74
2022/12/02 01:19:22;;;;;;;44.00;17.70;;;;;;;1.79;76.11;101738.17;660461;1312;138719;-74
2022/12/02 01:34:25;;;;;;;41.40;18.10;;;;;;;1.97;76.36;101738.00;660922;1305;138780;-74
2022/12/02 01:49:29;;;;;;;44.10;18.90;;;;;;;2.02;76.38;101723.02;660818;1312;139017;-74
2022/12/02 02:04:32;;;;;;;42.30;18.90;;;;;;;1.83;75.61;101725.97;660451;1306;138575;-74
2022/12/02 02:19:36;;;;;;;40.00;17.90;;;;;;;1.54;76.02;101727.65;660275;1313;138563;-74
2022/12/02 02:34:40;;;;;;;42.20;19.40;;;;;;;1.46;75.88;101721.48;660397;1307;268738;-74
2022/12/02 02:49:44;;;;;;;36.00;15.70;;;;;;;1.45;75.63;101717.36;660374;1310;138689;-75
2022/12/02 03:04:47;;;;;;;39.10;18.20;;;;;;;1.48;74.98;101720.40;660346;1312;138807;-74
2022/12/02 03:19:51;;;;;;;43.10;21.60;;;;;;;1.44;75.15;101704.13;659688;1305;138638;-74
2022/12/02 03:34:55;;;;;;;56.10;21.30;;;;;;;1.45;75.34;101707.70;660616;1312;138596;-75
2022/12/02 03:49:58;;;;;;;43.30;19.10;;;;;;;1.30;75.19;101700.02;660240;1311;138726;-74
2022/12/02 04:05:01;;;;;;;36.80;17.70;;;;;;;1.26;74.90;101696.33;660622;1312;139175;-73
2022/12/02 04:20:08;;;;;;;38.20;17.00;;;;;;;1.13;74.93;101690.98;660234;1307;138761;-74
2022/12/02 04:35:11;;;;;;;51.70;22.10;;;;;;;1.16;75.27;101680.55;660746;1309;138797;-74
2022/12/02 04:50:15;;;;;;;44.40;19.50;;;;;;;1.01;75.15;101689.73;660198;1312;139707;-74
2022/12/02 05:05:18;;;;;;;43.10;18.80;;;;;;;0.97;74.80;101695.16;660248;1312;140804;-74
2022/12/02 05:20:21;;;;;;;43.60;18.90;;;;;;;0.94;75.49;101696.10;660759;1312;138932;-74
2022/12/02 05:35:25;;;;;;;41.60;17.90;;;;;;;1.08;74.90;101689.36;660920;1312;138867;-74
2022/12/02 05:50:30;;;;;;;47.60;22.20;;;;;;;0.85;74.51;101691.69;660242;1312;138732;-74
2022/12/02 06:05:40;;;;;;;46.70;20.40;;;;;;;0.89;74.51;101700.56;660858;1307;139109;-74
2022/12/02 06:20:46;;;;;;;62.00;29.30;;;;;;;0.85;75.26;101707.20;660006;1307;138662;-74
2022/12/02 06:35:50;;;;;;;62.50;26.10;;;;;;;0.81;75.15;101724.67;660215;1305;139045;-74
2022/12/02 06:50:56;;;;;;;97.20;39.50;;;;;;;1.00;75.37;101730.59;660661;1312;139123;-74
2022/12/02 07:06:09;;;;;;;;;;;;;;;0.92;75.26;101738.54;660508;1304;138815;-74
2022/12/02 07:21:13;;;;;;;53.30;23.50;;;;;;;0.95;75.73;101736.91;660878;1312;125070;-74
2022/12/02 07:36:17;;;;;;;45.80;21.70;;;;;;;0.95;74.75;101731.90;660075;1309;138786;-74
2022/12/02 07:51:20;;;;;;;60.30;26.90;;;;;;;0.65;74.71;101738.64;660492;1313;138689;-74
2022/12/02 08:06:24;;;;;;;182.90;69.30;;;;;;;0.70;74.94;101750.42;660394;1307;138818;-74
2022/12/02 08:21:29;;;;;;;131.30;49.30;;;;;;;0.76;74.73;101749.59;660753;1312;138825;-74
2022/12/02 08:36:33;;;;;;;141.00;50.10;;;;;;;0.81;74.75;101748.60;660646;1312;138974;-74
2022/12/02 08:51:36;;;;;;;172.90;64.40;;;;;;;0.95;74.28;101753.29;660450;1312;139209;-74
2022/12/02 09:06:40;;;;;;;85.10;34.60;;;;;;;0.97;74.13;101757.73;660027;1313;138820;-74
2022/12/02 09:21:43;;;;;;;121.00;51.10;;;;;;;0.91;73.68;101757.34;660508;1312;138910;-74
2022/12/02 09:36:47;;;;;;;50.30;25.70;;;;;;;0.76;73.93;101760.09;660311;1312;139632;-74
2022/12/02 09:51:56;;;;;;;58.60;26.80;;;;;;;0.78;73.78;101758.68;661023;1309;138957;-74
2022/12/02 10:06:59;;;;;;;76.20;28.40;;;;;;;0.54;73.91;101753.70;660448;1313;138880;-74
2022/12/02 10:22:14;;;;;;;86.40;35.80;;;;;;;0.51;74.15;101747.93;660501;1313;140344;-74
2022/12/02 10:37:24;;;;;;;87.80;38.80;;;;;;;0.64;73.72;101731.79;660811;1298;139017;-74
2022/12/02 10:52:33;;;;;;;72.60;31.60;;;;;;;0.75;73.91;101723.09;660706;1301;139154;-74
2022/12/02 11:07:37;;;;;;;51.40;21.40;;;;;;;0.81;74.41;101720.02;660091;1313;138425;-74
2022/12/02 11:23:14;;;;;;;256.30;71.50;;;;;;;1.14;73.81;101723.52;661006;1312;138521;-74
2022/12/02 11:38:21;;;;;;;1004.20;339.50;;;;;;;0.99;73.33;101725.45;660422;1313;139494;-74
2022/12/02 13:30:14;;;;;;;229.50;73.00;;;;;;;1.00;73.93;101702.68;630268;1337;545485;-75
2022/12/02 13:45:40;;;;;;;167.20;50.80;;;;;;;0.66;73.18;101709.88;633702;1325;138758;-76
2022/12/02 14:00:43;;;;;;;68.70;29.30;;;;;;;0.49;73.19;101711.99;633942;1325;138755;-76
2022/12/02 14:15:46;;;;;;;242.50;67.80;;;;;;;0.54;73.68;101711.54;633369;1325;138808;-76
2022/12/02 14:30:49;;;;;;;90.20;42.70;;;;;;;0.60;74.12;101709.70;637354;1324;139473;-75
2022/12/02 14:45:53;;;;;;;317.20;105.20;;;;;;;0.41;73.84;101722.52;640331;1309;139406;-75
2022/12/02 15:00:57;;;;;;;59.20;23.10;;;;;;;0.45;73.95;101725.85;639560;1315;139541;-76
2022/12/02 15:16:01;;;;;;;67.30;28.10;;;;;;;0.56;74.10;101727.67;638858;1309;138199;-76
2022/12/02 15:31:05;;;;;;;188.00;45.90;;;;;;;0.47;74.42;101725.46;638002;1316;138836;-76
2022/12/02 15:46:09;;;;;;;368.60;92.60;;;;;;;0.29;73.97;101725.88;638603;1315;138858;-78
2022/12/02 16:01:13;;;;;;;273.90;82.60;;;;;;;0.34;74.36;101715.11;640454;1315;139438;-76
2022/12/02 16:16:17;;;;;;;322.90;115.30;;;;;;;0.45;74.12;101720.69;639360;1316;150630;-77
2022/12/02 16:31:21;;;;;;;78.20;36.00;;;;;;;0.35;75.73;101726.25;638430;1316;141479;-76
2022/12/02 16:46:24;;;;;;;108.40;39.90;;;;;;;0.34;75.56;101730.23;638656;1316;138900;-77
2022/12/02 17:01:28;;;;;;;166.80;55.60;;;;;;;0.22;75.48;101737.89;638166;1309;139645;-76
2022/12/02 17:16:31;;;;;;;118.10;41.80;;;;;;;0.12;75.56;101736.39;639283;1316;138781;-75
2022/12/02 17:31:35;;;;;;;111.40;40.20;;;;;;;-0.13;75.40;101737.26;638347;1314;139194;-77
2022/12/02 17:46:38;;;;;;;123.60;39.30;;;;;;;-0.12;75.87;101736.36;639983;1312;139166;-75
2022/12/02 18:01:42;;;;;;;264.00;92.40;;;;;;;-0.26;76.25;101748.50;644192;1309;139420;-75
2022/12/02 18:16:45;;;;;;;144.70;46.00;;;;;;;-0.42;76.02;101756.37;638291;1314;139023;-76
2022/12/02 18:31:48;;;;;;;81.80;28.40;;;;;;;-0.53;76.32;101756.39;640305;1309;140303;-76
2022/12/02 18:46:51;;;;;;;185.50;52.00;;;;;;;-0.76;76.19;101757.84;643165;1315;139711;-76
2022/12/02 19:01:55;;;;;;;186.00;47.70;;;;;;;-0.82;77.06;101752.09;642065;1302;139310;-76
2022/12/02 19:16:59;;;;;;;99.90;37.80;;;;;;;-0.66;77.35;101751.83;656796;1315;139546;-76
2022/12/02 19:32:02;;;;;;;93.50;38.40;;;;;;;-0.78;77.21;101757.88;638933;1309;138968;-76
2022/12/02 19:47:05;;;;;;;83.50;31.60;;;;;;;-0.83;77.47;101753.48;639998;1310;138785;-76
2022/12/02 20:02:13;;;;;;;99.00;32.70;;;;;;;-0.83;77.50;101758.13;638916;1306;139089;-76
2022/12/02 20:17:17;;;;;;;133.30;44.20;;;;;;;-1.07;78.10;101760.24;638518;1303;142320;-76
2022/12/02 20:32:20;;;;;;;81.90;29.30;;;;;;;-1.09;78.72;101761.63;637652;1302;138960;-78
2022/12/02 20:47:23;;;;;;;78.50;29.30;;;;;;;-1.30;78.62;101759.55;638820;1315;138991;-76
2022/12/02 21:02:26;;;;;;;78.40;30.90;;;;;;;-1.47;78.95;101755.68;640461;1308;138804;-76
2022/12/02 21:17:31;;;;;;;60.70;22.20;;;;;;;-1.62;79.76;101760.02;639336;1308;138907;-76
2022/12/02 21:32:34;;;;;;;69.30;27.00;;;;;;;-1.51;80.27;101769.30;638872;1315;138947;-77
2022/12/02 21:47:37;;;;;;;54.20;21.90;;;;;;;-1.46;80.86;101775.06;638967;1314;138852;-77
2022/12/02 22:02:41;;;;;;;61.40;22.90;;;;;;;-1.60;80.58;101776.45;638987;1315;138804;-77
2022/12/02 22:17:45;;;;;;;66.20;26.90;;;;;;;-1.63;80.76;101771.52;643295;1315;139685;-76
2022/12/02 22:32:49;;;;;;;82.10;27.70;;;;;;;-1.40;81.95;101767.95;638579;1314;138991;-76
2022/12/02 22:47:52;;;;;;;81.40;32.00;;;;;;;-1.17;81.86;101765.02;638473;1301;139128;-76
2022/12/02 23:02:55;;;;;;;87.80;30.60;;;;;;;-1.14;81.99;101752.44;638037;1315;139265;-76
2022/12/02 23:17:59;;;;;;;80.40;27.10;;;;;;;-1.18;82.06;101745.46;637120;1315;139064;-77
2022/12/02 23:33:02;;;;;;;178.40;50.10;;;;;;;-1.17;82.74;101736.86;637890;1315;138943;-76
2022/12/02 23:48:06;;;;;;;81.50;31.60;;;;;;;-1.09;83.50;101731.93;638500;1315;138855;-75
